sensor_id;sensor_type;location;lat;lon;timestamp;pressure;altitude;pressure_sealevel;temperature;humidity
71805;BME280;59654;52.216;5.616;2023-04-01T00:00:18;98823.75;;;8.83;96.51
71805;BME280;59654;52.216;5.616;2023-04-01T00:00:52;98825.56;;;8.82;97.01
71805;BME280;59654;52.216;5.616;2023-04-01T00:01:23;98826.41;;;8.83;97.08
71805;BME280;59654;52.216;5.616;2023-04-01T00:01:54;98823.66;;;8.84;95.98
71805;BME280;59654;52.216;5.616;2023-04-01T00:02:25;98822.81;;;8.84;96.10
71805;BME280;59654;52.216;5.616;2023-04-01T00:02:56;98819.41;;;8.82;96.02
71805;BME280;59654;52.216;5.616;2023-04-01T00:03:28;98816.56;;;8.85;96.25
71805;BME280;59654;52.216;5.616;2023-04-01T00:03:59;98831.63;;;8.84;96.43
71805;BME280;59654;52.216;5.616;2023-04-01T00:04:32;98824.72;;;8.82;95.87
71805;BME280;59654;52.216;5.616;2023-04-01T00:05:03;98825.47;;;8.84;96.13
71805;BME280;59654;52.216;5.616;2023-04-01T00:05:36;98820.03;;;8.85;96.45
71805;BME280;59654;52.216;5.616;2023-04-01T00:06:06;98819.22;;;8.85;96.64
71805;BME280;59654;52.216;5.616;2023-04-01T00:06:38;98820.78;;;8.87;97.14
71805;BME280;59654;52.216;5.616;2023-04-01T00:07:08;98822.59;;;8.87;96.99
71805;BME280;59654;52.216;5.616;2023-04-01T00:07:40;98822.59;;;8.87;96.13
71805;BME280;59654;52.216;5.616;2023-04-01T00:08:11;98817.19;;;8.88;96.19
71805;BME280;59654;52.216;5.616;2023-04-01T00:08:42;98819.75;;;8.90;96.90
71805;BME280;59654;52.216;5.616;2023-04-01T00:09:14;98824.22;;;8.89;96.16
71805;BME280;59654;52.216;5.616;2023-04-01T00:09:45;98821.56;;;8.89;96.03
71805;BME280;59654;52.216;5.616;2023-04-01T00:10:17;98817.09;;;8.90;96.92
71805;BME280;59654;52.216;5.616;2023-04-01T00:10:48;98824.22;;;8.89;96.84
71805;BME280;59654;52.216;5.616;2023-04-01T00:11:19;98822.41;;;8.90;96.03
71805;BME280;59654;52.216;5.616;2023-04-01T00:11:50;98820.69;;;8.89;96.39
71805;BME280;59654;52.216;5.616;2023-04-01T00:12:21;98823.34;;;8.89;97.02
71805;BME280;59654;52.216;5.616;2023-04-01T00:12:52;98825.16;;;8.88;96.86
71805;BME280;59654;52.216;5.616;2023-04-01T00:13:25;98822.41;;;8.90;95.95
71805;BME280;59654;52.216;5.616;2023-04-01T00:13:56;98818.03;;;8.89;95.96
71805;BME280;59654;52.216;5.616;2023-04-01T00:14:27;98824.13;;;8.91;96.92
71805;BME280;59654;52.216;5.616;2023-04-01T00:14:59;98830.38;;;8.90;96.96
71805;BME280;59654;52.216;5.616;2023-04-01T00:15:31;98824.13;;;8.91;96.41
71805;BME280;59654;52.216;5.616;2023-04-01T00:16:02;98828.47;;;8.92;97.01
71805;BME280;59654;52.216;5.616;2023-04-01T00:16:34;98832.84;;;8.93;96.22
71805;BME280;59654;52.216;5.616;2023-04-01T00:17:05;98826.47;;;8.96;96.93
71805;BME280;59654;52.216;5.616;2023-04-01T00:17:37;98828.38;;;8.94;96.84
71805;BME280;59654;52.216;5.616;2023-04-01T00:18:08;98825.72;;;8.94;96.65
71805;BME280;59654;52.216;5.616;2023-04-01T00:18:39;98828.38;;;8.94;96.44
71805;BME280;59654;52.216;5.616;2023-04-01T00:19:10;98825.63;;;8.95;97.36
71805;BME280;59654;52.216;5.616;2023-04-01T00:19:41;98823.81;;;8.96;96.85
71805;BME280;59654;52.216;5.616;2023-04-01T00:20:12;98822.13;;;8.95;96.27
71805;BME280;59654;52.216;5.616;2023-04-01T00:20:46;98829.16;;;8.96;96.38
71805;BME280;59654;52.216;5.616;2023-04-01T00:21:19;98824.59;;;8.98;96.99
71805;BME280;59654;52.216;5.616;2023-04-01T00:21:51;98824.69;;;8.96;96.23
71805;BME280;59654;52.216;5.616;2023-04-01T00:22:23;98826.28;;;8.99;96.74
71805;BME280;59654;52.216;5.616;2023-04-01T00:22:55;98831.63;;;8.99;96.30
71805;BME280;59654;52.216;5.616;2023-04-01T00:23:26;98825.34;;;9.00;95.63
71805;BME280;59654;52.216;5.616;2023-04-01T00:23:57;98828.09;;;8.98;95.52
71805;BME280;59654;52.216;5.616;2023-04-01T00:24:28;98821.63;;;9.02;95.86
71805;BME280;59654;52.216;5.616;2023-04-01T00:24:59;98828.72;;;9.02;95.78
71805;BME280;59654;52.216;5.616;2023-04-01T00:25:30;98820.75;;;9.02;95.99
71805;BME280;59654;52.216;5.616;2023-04-01T00:26:03;98824.28;;;9.02;96.20
71805;BME280;59654;52.216;5.616;2023-04-01T00:26:34;98823.41;;;9.02;96.20
71805;BME280;59654;52.216;5.616;2023-04-01T00:27:05;98828.00;;;9.00;96.49
71805;BME280;59654;52.216;5.616;2023-04-01T00:27:36;98823.53;;;9.00;95.74
71805;BME280;59654;52.216;5.616;2023-04-01T00:28:07;98829.72;;;9.01;96.57
71805;BME280;59654;52.216;5.616;2023-04-01T00:28:38;98824.50;;;8.99;96.30
71805;BME280;59654;52.216;5.616;2023-04-01T00:29:09;98828.00;;;9.00;96.51
71805;BME280;59654;52.216;5.616;2023-04-01T00:29:43;98819.81;;;9.03;95.29
71805;BME280;59654;52.216;5.616;2023-04-01T00:30:15;98831.38;;;9.02;95.77
71805;BME280;59654;52.216;5.616;2023-04-01T00:30:47;98830.44;;;9.03;96.17
71805;BME280;59654;52.216;5.616;2023-04-01T00:31:19;98820.66;;;9.03;96.25
71805;BME280;59654;52.216;5.616;2023-04-01T00:31:50;98825.88;;;9.05;95.71
71805;BME280;59654;52.216;5.616;2023-04-01T00:32:21;98818.75;;;9.05;96.35
71805;BME280;59654;52.216;5.616;2023-04-01T00:32:53;98828.34;;;9.08;96.62
71805;BME280;59654;52.216;5.616;2023-04-01T00:33:24;98829.09;;;9.10;96.09
71805;BME280;59654;52.216;5.616;2023-04-01T00:33:55;98817.72;;;9.08;96.75
71805;BME280;59654;52.216;5.616;2023-04-01T00:34:26;98822.19;;;9.07;95.72
71805;BME280;59654;52.216;5.616;2023-04-01T00:34:57;98826.53;;;9.08;95.90
71805;BME280;59654;52.216;5.616;2023-04-01T00:35:30;98831.97;;;9.07;95.61
71805;BME280;59654;52.216;5.616;2023-04-01T00:36:07;98823.88;;;9.08;96.15
71805;BME280;59654;52.216;5.616;2023-04-01T00:36:45;98816.75;;;9.09;95.71
71805;BME280;59654;52.216;5.616;2023-04-01T00:37:16;98818.47;;;9.10;96.25
71805;BME280;59654;52.216;5.616;2023-04-01T00:37:46;98827.31;;;9.10;95.91
71805;BME280;59654;52.216;5.616;2023-04-01T00:38:18;98826.63;;;9.07;95.96
71805;BME280;59654;52.216;5.616;2023-04-01T00:38:49;98831.09;;;9.06;96.06
71805;BME280;59654;52.216;5.616;2023-04-01T00:39:21;98823.13;;;9.06;95.69
71805;BME280;59654;52.216;5.616;2023-04-01T00:39:52;98829.19;;;9.08;96.48
71805;BME280;59654;52.216;5.616;2023-04-01T00:40:32;98825.78;;;9.06;95.67
71805;BME280;59654;52.216;5.616;2023-04-01T00:41:09;98826.63;;;9.07;96.44
71805;BME280;59654;52.216;5.616;2023-04-01T00:41:44;98825.69;;;9.08;96.20
71805;BME280;59654;52.216;5.616;2023-04-01T00:42:15;98827.50;;;9.07;96.06
71805;BME280;59654;52.216;5.616;2023-04-01T00:42:46;98826.53;;;9.08;96.87
71805;BME280;59654;52.216;5.616;2023-04-01T00:43:19;98826.63;;;9.07;96.12
71805;BME280;59654;52.216;5.616;2023-04-01T00:43:51;98825.78;;;9.06;96.33
71805;BME280;59654;52.216;5.616;2023-04-01T00:44:31;98830.16;;;9.07;95.59
71805;BME280;59654;52.216;5.616;2023-04-01T00:45:36;98829.31;;;9.07;96.41
71805;BME280;59654;52.216;5.616;2023-04-01T00:46:08;98828.16;;;9.11;95.51
71805;BME280;59654;52.216;5.616;2023-04-01T00:46:39;98831.66;;;9.11;96.19
71805;BME280;59654;52.216;5.616;2023-04-01T00:47:10;98829.00;;;9.11;96.26
71805;BME280;59654;52.216;5.616;2023-04-01T00:47:41;98832.53;;;9.12;96.37
71805;BME280;59654;52.216;5.616;2023-04-01T00:48:21;98829.97;;;9.10;95.99
71805;BME280;59654;52.216;5.616;2023-04-01T00:48:56;98829.88;;;9.12;95.61
71805;BME280;59654;52.216;5.616;2023-04-01T00:49:35;98834.41;;;9.10;95.45
71805;BME280;59654;52.216;5.616;2023-04-01T00:50:08;98829.97;;;9.10;95.83
71805;BME280;59654;52.216;5.616;2023-04-01T00:50:44;98832.81;;;9.07;96.10
71805;BME280;59654;52.216;5.616;2023-04-01T00:51:21;98828.34;;;9.08;95.42
71805;BME280;59654;52.216;5.616;2023-04-01T00:51:58;98834.53;;;9.08;95.75
71805;BME280;59654;52.216;5.616;2023-04-01T00:52:30;98845.06;;;9.10;96.08
71805;BME280;59654;52.216;5.616;2023-04-01T00:53:03;98839.06;;;9.06;95.64
71805;BME280;59654;52.216;5.616;2023-04-01T00:53:43;98831.28;;;9.03;95.35
71805;BME280;59654;52.216;5.616;2023-04-01T00:54:21;98841.81;;;9.05;96.62
71805;BME280;59654;52.216;5.616;2023-04-01T00:54:58;98839.28;;;9.03;96.13
71805;BME280;59654;52.216;5.616;2023-04-01T00:55:35;98834.81;;;9.04;96.61
71805;BME280;59654;52.216;5.616;2023-04-01T00:57:05;98839.16;;;9.05;95.53
71805;BME280;59654;52.216;5.616;2023-04-01T00:57:42;98838.22;;;9.06;95.91
71805;BME280;59654;52.216;5.616;2023-04-01T00:58:18;98832.16;;;9.04;95.91
71805;BME280;59654;52.216;5.616;2023-04-01T00:58:59;98841.94;;;9.03;96.38
71805;BME280;59654;52.216;5.616;2023-04-01T00:59:40;98837.56;;;9.02;96.18
71805;BME280;59654;52.216;5.616;2023-04-01T01:00:14;98840.34;;;9.01;95.61
71805;BME280;59654;52.216;5.616;2023-04-01T01:00:48;98836.72;;;9.02;96.42
71805;BME280;59654;52.216;5.616;2023-04-01T01:01:24;98846.38;;;9.03;95.84
71805;BME280;59654;52.216;5.616;2023-04-01T01:01:55;98837.56;;;9.02;95.62
71805;BME280;59654;52.216;5.616;2023-04-01T01:02:26;98845.53;;;9.02;96.38
71805;BME280;59654;52.216;5.616;2023-04-01T01:02:57;98846.38;;;9.03;96.65
71805;BME280;59654;52.216;5.616;2023-04-01T01:03:28;98842.88;;;9.02;96.45
71805;BME280;59654;52.216;5.616;2023-04-01T01:03:59;98849.03;;;9.03;96.30
71805;BME280;59654;52.216;5.616;2023-04-01T01:04:32;98842.88;;;9.02;96.40
71805;BME280;59654;52.216;5.616;2023-04-01T01:05:04;98842.03;;;9.02;96.18
71805;BME280;59654;52.216;5.616;2023-04-01T01:06:47;98839.59;;;8.99;95.87
71805;BME280;59654;52.216;5.616;2023-04-01T01:10:34;98847.00;;;8.94;95.79
71805;BME280;59654;52.216;5.616;2023-04-01T01:11:10;98852.13;;;8.97;97.08
71805;BME280;59654;52.216;5.616;2023-04-01T01:11:50;98847.94;;;8.93;96.62
71805;BME280;59654;52.216;5.616;2023-04-01T01:12:25;98850.59;;;8.93;96.18
71805;BME280;59654;52.216;5.616;2023-04-01T01:13:21;98847.00;;;8.94;95.54
71805;BME280;59654;52.216;5.616;2023-04-01T01:15:20;98847.00;;;8.94;96.46
71805;BME280;59654;52.216;5.616;2023-04-01T01:16:08;98859.34;;;8.95;95.92
71805;BME280;59654;52.216;5.616;2023-04-01T01:16:52;98843.28;;;8.96;95.76
71805;BME280;59654;52.216;5.616;2023-04-01T01:18:39;98857.34;;;8.98;95.72
71805;BME280;59654;52.216;5.616;2023-04-01T01:23:55;98851.34;;;8.95;95.07
71805;BME280;59654;52.216;5.616;2023-04-01T01:27:17;98854.97;;;8.94;95.68
71805;BME280;59654;52.216;5.616;2023-04-01T01:30:51;98856.94;;;8.90;95.29
71805;BME280;59654;52.216;5.616;2023-04-01T01:31:37;98856.28;;;8.86;95.75
71805;BME280;59654;52.216;5.616;2023-04-01T01:35:44;98856.94;;;8.62;96.01
71805;BME280;59654;52.216;5.616;2023-04-01T01:36:25;98857.91;;;8.61;96.31
71805;BME280;59654;52.216;5.616;2023-04-01T01:37:05;98856.84;;;8.63;97.08
71805;BME280;59654;52.216;5.616;2023-04-01T01:37:43;98858.56;;;8.64;96.38
71805;BME280;59654;52.216;5.616;2023-04-01T01:38:19;98856.00;;;8.63;96.79
71805;BME280;59654;52.216;5.616;2023-04-01T01:39:14;98857.81;;;8.62;96.29
71805;BME280;59654;52.216;5.616;2023-04-01T01:39:51;98860.38;;;8.64;96.13
71805;BME280;59654;52.216;5.616;2023-04-01T01:40:27;98858.56;;;8.64;96.79
71805;BME280;59654;52.216;5.616;2023-04-01T01:41:02;98859.59;;;8.62;95.83
71805;BME280;59654;52.216;5.616;2023-04-01T01:41:39;98863.88;;;8.64;96.75
71805;BME280;59654;52.216;5.616;2023-04-01T01:42:17;98864.75;;;8.65;96.47
71805;BME280;59654;52.216;5.616;2023-04-01T01:42:56;98864.75;;;8.65;96.20
71805;BME280;59654;52.216;5.616;2023-04-01T01:43:35;98868.91;;;8.69;97.04
71805;BME280;59654;52.216;5.616;2023-04-01T01:44:12;98869.75;;;8.69;97.10
71805;BME280;59654;52.216;5.616;2023-04-01T01:44:48;98867.94;;;8.70;95.95
71805;BME280;59654;52.216;5.616;2023-04-01T01:45:24;98862.63;;;8.70;96.73
71805;BME280;59654;52.216;5.616;2023-04-01T01:46:07;98864.16;;;8.74;96.71
71805;BME280;59654;52.216;5.616;2023-04-01T01:46:42;98859.69;;;8.74;96.80
71805;BME280;59654;52.216;5.616;2023-04-01T01:47:17;98867.50;;;8.77;96.63
71805;BME280;59654;52.216;5.616;2023-04-01T01:47:51;98863.81;;;8.80;95.84
71805;BME280;59654;52.216;5.616;2023-04-01T01:48:25;98864.66;;;8.80;96.26
71805;BME280;59654;52.216;5.616;2023-04-01T01:49:00;98862.09;;;8.79;95.91
71805;BME280;59654;52.216;5.616;2023-04-01T01:49:35;98866.47;;;8.80;96.59
71805;BME280;59654;52.216;5.616;2023-04-01T01:50:09;98875.09;;;8.83;96.68
71805;BME280;59654;52.216;5.616;2023-04-01T01:50:44;98866.19;;;8.84;96.54
71805;BME280;59654;52.216;5.616;2023-04-01T01:51:18;98866.28;;;8.83;95.63
71805;BME280;59654;52.216;5.616;2023-04-01T01:51:50;98870.53;;;8.85;95.34
71805;BME280;59654;52.216;5.616;2023-04-01T01:52:23;98867.03;;;8.85;96.49
71805;BME280;59654;52.216;5.616;2023-04-01T01:53:03;98868.72;;;8.86;96.19
71805;BME280;59654;52.216;5.616;2023-04-01T01:53:35;98868.00;;;8.84;95.83
71805;BME280;59654;52.216;5.616;2023-04-01T01:54:06;98867.13;;;8.83;96.28
71805;BME280;59654;52.216;5.616;2023-04-01T01:54:50;98864.47;;;8.83;95.95
71805;BME280;59654;52.216;5.616;2023-04-01T01:55:29;98871.59;;;8.83;96.19
71805;BME280;59654;52.216;5.616;2023-04-01T01:56:04;98872.34;;;8.85;95.46
71805;BME280;59654;52.216;5.616;2023-04-01T01:56:45;98868.09;;;8.82;95.84
71805;BME280;59654;52.216;5.616;2023-04-01T01:57:23;98870.66;;;8.84;96.11
71805;BME280;59654;52.216;5.616;2023-04-01T01:59:08;98874.16;;;8.84;95.33
71805;BME280;59654;52.216;5.616;2023-04-01T01:59:43;98865.44;;;8.82;95.76
71805;BME280;59654;52.216;5.616;2023-04-01T02:00:22;98866.28;;;8.83;95.33
71805;BME280;59654;52.216;5.616;2023-04-01T02:00:58;98876.81;;;8.84;95.36
71805;BME280;59654;52.216;5.616;2023-04-01T02:01:35;98866.38;;;8.81;96.41
71805;BME280;59654;52.216;5.616;2023-04-01T02:02:17;98870.84;;;8.81;96.24
71805;BME280;59654;52.216;5.616;2023-04-01T02:02:50;98873.50;;;8.81;96.53
71805;BME280;59654;52.216;5.616;2023-04-01T02:03:23;98869.78;;;8.83;96.23
71805;BME280;59654;52.216;5.616;2023-04-01T02:03:58;98868.84;;;8.84;95.54
71805;BME280;59654;52.216;5.616;2023-04-01T02:04:29;98875.09;;;8.83;95.58
71805;BME280;59654;52.216;5.616;2023-04-01T02:05:01;98867.78;;;8.87;96.18
71805;BME280;59654;52.216;5.616;2023-04-01T02:05:35;98875.66;;;8.88;95.57
71805;BME280;59654;52.216;5.616;2023-04-01T02:06:16;98874.69;;;8.89;95.78
71805;BME280;59654;52.216;5.616;2023-04-01T02:07:03;98874.78;;;8.88;95.10
71805;BME280;59654;52.216;5.616;2023-04-01T02:07:39;98881.91;;;8.87;95.40
71805;BME280;59654;52.216;5.616;2023-04-01T02:08:22;98869.56;;;8.86;96.34
71805;BME280;59654;52.216;5.616;2023-04-01T02:09:01;98881.16;;;8.85;95.75
71805;BME280;59654;52.216;5.616;2023-04-01T02:09:34;98874.88;;;8.86;95.69
71805;BME280;59654;52.216;5.616;2023-04-01T02:10:06;98867.88;;;8.85;95.54
71805;BME280;59654;52.216;5.616;2023-04-01T02:10:43;98877.53;;;8.86;96.12
71805;BME280;59654;52.216;5.616;2023-04-01T02:11:26;98870.34;;;8.88;96.10
71805;BME280;59654;52.216;5.616;2023-04-01T02:12:07;98876.59;;;8.87;95.91
71805;BME280;59654;52.216;5.616;2023-04-01T02:12:46;98878.31;;;8.88;95.87
71805;BME280;59654;52.216;5.616;2023-04-01T02:13:38;98871.28;;;8.87;96.26
71805;BME280;59654;52.216;5.616;2023-04-01T02:14:19;98877.34;;;8.89;95.71
71805;BME280;59654;52.216;5.616;2023-04-01T02:15:06;98880.19;;;8.86;95.31
71805;BME280;59654;52.216;5.616;2023-04-01T02:15:45;98879.25;;;8.87;95.60
71805;BME280;59654;52.216;5.616;2023-04-01T02:16:29;98878.31;;;8.88;95.74
71805;BME280;59654;52.216;5.616;2023-04-01T02:17:13;98887.13;;;8.89;96.44
71805;BME280;59654;52.216;5.616;2023-04-01T02:17:47;98878.31;;;8.88;96.01
71805;BME280;59654;52.216;5.616;2023-04-01T02:18:20;98877.34;;;8.89;95.31
71805;BME280;59654;52.216;5.616;2023-04-01T02:18:55;98874.69;;;8.89;95.23
71805;BME280;59654;52.216;5.616;2023-04-01T02:19:32;98881.81;;;8.89;96.10
71805;BME280;59654;52.216;5.616;2023-04-01T02:20:20;98877.34;;;8.89;95.52
71805;BME280;59654;52.216;5.616;2023-04-01T02:20:54;98885.44;;;8.88;95.61
71805;BME280;59654;52.216;5.616;2023-04-01T02:21:31;98881.91;;;8.87;95.23
71805;BME280;59654;52.216;5.616;2023-04-01T02:22:05;98880.44;;;8.83;96.19
71805;BME280;59654;52.216;5.616;2023-04-01T02:22:47;98875.09;;;8.83;95.29
71805;BME280;59654;52.216;5.616;2023-04-01T02:23:20;98885.16;;;8.78;95.43
71805;BME280;59654;52.216;5.616;2023-04-01T02:23:54;98879.09;;;8.76;95.82
71805;BME280;59654;52.216;5.616;2023-04-01T02:24:28;98885.25;;;8.77;95.44
71805;BME280;59654;52.216;5.616;2023-04-01T02:25:08;98878.13;;;8.77;95.95
71805;BME280;59654;52.216;5.616;2023-04-01T02:25:43;98883.44;;;8.77;96.02
71805;BME280;59654;52.216;5.616;2023-04-01T02:26:16;98886.00;;;8.79;96.16
71805;BME280;59654;52.216;5.616;2023-04-01T02:26:48;98886.09;;;8.77;96.22
71805;BME280;59654;52.216;5.616;2023-04-01T02:27:21;98889.72;;;8.76;95.01
71805;BME280;59654;52.216;5.616;2023-04-01T02:27:54;98884.47;;;8.75;95.81
71805;BME280;59654;52.216;5.616;2023-04-01T02:28:30;98880.09;;;8.74;96.06
71805;BME280;59654;52.216;5.616;2023-04-01T02:29:04;98884.53;;;8.73;96.21
71805;BME280;59654;52.216;5.616;2023-04-01T02:29:36;98884.47;;;8.75;95.50
71805;BME280;59654;52.216;5.616;2023-04-01T02:30:12;98891.56;;;8.74;96.00
71805;BME280;59654;52.216;5.616;2023-04-01T02:30:48;98876.56;;;8.73;96.04
71805;BME280;59654;52.216;5.616;2023-04-01T02:31:22;98884.53;;;8.73;96.00
71805;BME280;59654;52.216;5.616;2023-04-01T02:31:55;98888.16;;;8.72;95.55
71805;BME280;59654;52.216;5.616;2023-04-01T02:32:27;98885.41;;;8.74;95.47
71805;BME280;59654;52.216;5.616;2023-04-01T02:33:01;98888.06;;;8.74;95.55
71805;BME280;59654;52.216;5.616;2023-04-01T02:33:35;98882.66;;;8.75;95.41
71805;BME280;59654;52.216;5.616;2023-04-01T02:34:09;98886.25;;;8.74;96.15
71805;BME280;59654;52.216;5.616;2023-04-01T02:34:40;98884.63;;;8.72;95.58
71805;BME280;59654;52.216;5.616;2023-04-01T02:35:15;98880.28;;;8.71;95.13
71805;BME280;59654;52.216;5.616;2023-04-01T02:35:47;98883.16;;;8.68;94.65
71805;BME280;59654;52.216;5.616;2023-04-01T02:36:18;98885.81;;;8.68;95.79
71805;BME280;59654;52.216;5.616;2023-04-01T02:36:50;98884.19;;;8.65;95.31
71805;BME280;59654;52.216;5.616;2023-04-01T02:37:21;98886.84;;;8.65;96.12
71805;BME280;59654;52.216;5.616;2023-04-01T02:37:54;98886.00;;;8.65;96.11
71805;BME280;59654;52.216;5.616;2023-04-01T02:38:25;98880.75;;;8.63;95.31
71805;BME280;59654;52.216;5.616;2023-04-01T02:38:58;98880.75;;;8.63;95.55
71805;BME280;59654;52.216;5.616;2023-04-01T02:39:32;98886.84;;;8.65;95.66
71805;BME280;59654;52.216;5.616;2023-04-01T02:40:06;98882.47;;;8.64;95.37
71805;BME280;59654;52.216;5.616;2023-04-01T02:40:50;98888.56;;;8.66;95.52
71805;BME280;59654;52.216;5.616;2023-04-01T02:41:22;98881.53;;;8.65;95.42
71805;BME280;59654;52.216;5.616;2023-04-01T02:41:53;98879.81;;;8.64;95.10
71805;BME280;59654;52.216;5.616;2023-04-01T02:42:24;98880.84;;;8.62;95.34
71805;BME280;59654;52.216;5.616;2023-04-01T02:42:55;98887.88;;;8.63;95.06
71805;BME280;59654;52.216;5.616;2023-04-01T02:43:27;98882.66;;;8.61;95.53
71805;BME280;59654;52.216;5.616;2023-04-01T02:43:58;98882.66;;;8.61;96.17
71805;BME280;59654;52.216;5.616;2023-04-01T02:44:29;98890.81;;;8.58;95.26
71805;BME280;59654;52.216;5.616;2023-04-01T02:45:00;98885.31;;;8.61;95.24
71805;BME280;59654;52.216;5.616;2023-04-01T02:45:31;98885.31;;;8.61;96.21
71805;BME280;59654;52.216;5.616;2023-04-01T02:46:02;98880.94;;;8.60;95.21
71805;BME280;59654;52.216;5.616;2023-04-01T02:46:33;98884.28;;;8.64;95.68
71805;BME280;59654;52.216;5.616;2023-04-01T02:47:04;98890.44;;;8.64;96.05
71805;BME280;59654;52.216;5.616;2023-04-01T02:47:35;98881.72;;;8.62;96.05
71805;BME280;59654;52.216;5.616;2023-04-01T02:48:06;98881.53;;;8.65;95.63
71805;BME280;59654;52.216;5.616;2023-04-01T02:48:37;98884.38;;;8.62;95.56
71805;BME280;59654;52.216;5.616;2023-04-01T02:49:08;98886.09;;;8.63;95.17
71805;BME280;59654;52.216;5.616;2023-04-01T02:49:39;98886.00;;;8.65;95.80
71805;BME280;59654;52.216;5.616;2023-04-01T02:50:11;98882.38;;;8.66;95.61
71805;BME280;59654;52.216;5.616;2023-04-01T02:50:42;98887.69;;;8.66;95.53
71805;BME280;59654;52.216;5.616;2023-04-01T02:51:12;98888.66;;;8.65;95.56
71805;BME280;59654;52.216;5.616;2023-04-01T02:51:43;98890.44;;;8.64;95.65
71805;BME280;59654;52.216;5.616;2023-04-01T02:52:14;98886.84;;;8.65;95.92
71805;BME280;59654;52.216;5.616;2023-04-01T02:52:45;98880.75;;;8.63;95.75
71805;BME280;59654;52.216;5.616;2023-04-01T02:53:17;98894.31;;;8.58;96.01
71805;BME280;59654;52.216;5.616;2023-04-01T02:53:48;98885.59;;;8.56;95.18
71805;BME280;59654;52.216;5.616;2023-04-01T02:54:19;98890.91;;;8.56;95.84
71805;BME280;59654;52.216;5.616;2023-04-01T02:54:50;98884.81;;;8.54;95.72
71805;BME280;59654;52.216;5.616;2023-04-01T02:55:21;98884.91;;;8.53;96.17
71805;BME280;59654;52.216;5.616;2023-04-01T02:55:53;98889.41;;;8.52;95.10
71805;BME280;59654;52.216;5.616;2023-04-01T02:56:24;98895.66;;;8.51;95.37
71805;BME280;59654;52.216;5.616;2023-04-01T02:56:56;98892.06;;;8.52;95.69
71805;BME280;59654;52.216;5.616;2023-04-01T02:57:27;98890.13;;;8.54;96.35
71805;BME280;59654;52.216;5.616;2023-04-01T02:57:58;98891.09;;;8.53;95.82
71805;BME280;59654;52.216;5.616;2023-04-01T02:58:29;98885.69;;;8.55;96.09
71805;BME280;59654;52.216;5.616;2023-04-01T02:58:59;98891.00;;;8.55;96.05
71805;BME280;59654;52.216;5.616;2023-04-01T02:59:30;98885.59;;;8.56;96.54
71805;BME280;59654;52.216;5.616;2023-04-01T03:00:01;98891.75;;;8.57;95.72
71805;BME280;59654;52.216;5.616;2023-04-01T03:00:33;98893.47;;;8.58;96.21
71805;BME280;59654;52.216;5.616;2023-04-01T03:01:04;98894.59;;;8.54;95.45
71805;BME280;59654;52.216;5.616;2023-04-01T03:01:35;98893.09;;;8.50;95.92
71805;BME280;59654;52.216;5.616;2023-04-01T03:02:05;98895.00;;;8.48;96.10
71805;BME280;59654;52.216;5.616;2023-04-01T03:02:38;98893.28;;;8.47;96.21
71805;BME280;59654;52.216;5.616;2023-04-01T03:03:10;98891.47;;;8.47;95.65
71805;BME280;59654;52.216;5.616;2023-04-01T03:03:41;98897.72;;;8.46;95.92
71805;BME280;59654;52.216;5.616;2023-04-01T03:04:11;98894.22;;;8.46;95.65
71805;BME280;59654;52.216;5.616;2023-04-01T03:04:42;98893.38;;;8.45;95.96
71805;BME280;59654;52.216;5.616;2023-04-01T03:05:13;98896.03;;;8.45;95.06
71805;BME280;59654;52.216;5.616;2023-04-01T03:05:44;98894.22;;;8.46;95.53
71805;BME280;59654;52.216;5.616;2023-04-01T03:06:16;98896.78;;;8.47;96.12
71805;BME280;59654;52.216;5.616;2023-04-01T03:06:47;98896.78;;;8.47;95.92
71805;BME280;59654;52.216;5.616;2023-04-01T03:07:18;98902.00;;;8.49;96.00
71805;BME280;59654;52.216;5.616;2023-04-01T03:07:49;98902.97;;;8.48;95.80
71805;BME280;59654;52.216;5.616;2023-04-01T03:08:20;98902.88;;;8.49;95.38
71805;BME280;59654;52.216;5.616;2023-04-01T03:08:50;98898.50;;;8.48;95.95
71805;BME280;59654;52.216;5.616;2023-04-01T03:09:21;98898.41;;;8.50;95.68
71805;BME280;59654;52.216;5.616;2023-04-01T03:09:52;98901.91;;;8.50;95.93
71805;BME280;59654;52.216;5.616;2023-04-01T03:10:23;98899.19;;;8.52;96.50
71805;BME280;59654;52.216;5.616;2023-04-01T03:10:54;98902.69;;;8.52;95.58
71805;BME280;59654;52.216;5.616;2023-04-01T03:11:25;98910.53;;;8.54;96.39
71805;BME280;59654;52.216;5.616;2023-04-01T03:11:57;98896.41;;;8.53;95.55
71805;BME280;59654;52.216;5.616;2023-04-01T03:12:27;98904.38;;;8.53;95.95
71805;BME280;59654;52.216;5.616;2023-04-01T03:12:58;98900.75;;;8.54;95.43
71805;BME280;59654;52.216;5.616;2023-04-01T03:13:30;98896.31;;;8.55;96.19
71805;BME280;59654;52.216;5.616;2023-04-01T03:14:01;98901.63;;;8.55;95.83
71805;BME280;59654;52.216;5.616;2023-04-01T03:14:32;98908.00;;;8.52;95.71
71805;BME280;59654;52.216;5.616;2023-04-01T03:15:03;98903.50;;;8.53;95.70
71805;BME280;59654;52.216;5.616;2023-04-01T03:15:34;98911.47;;;8.53;96.54
71805;BME280;59654;52.216;5.616;2023-04-01T03:16:06;98907.88;;;8.54;96.27
71805;BME280;59654;52.216;5.616;2023-04-01T03:16:39;98902.69;;;8.52;96.56
71805;BME280;59654;52.216;5.616;2023-04-01T03:17:10;98905.22;;;8.54;95.83
71805;BME280;59654;52.216;5.616;2023-04-01T03:17:42;98909.59;;;8.55;95.41
71805;BME280;59654;52.216;5.616;2023-04-01T03:18:14;98903.31;;;8.56;95.50
71805;BME280;59654;52.216;5.616;2023-04-01T03:18:45;98906.75;;;8.58;95.84
71805;BME280;59654;52.216;5.616;2023-04-01T03:19:17;98905.91;;;8.57;95.71
71805;BME280;59654;52.216;5.616;2023-04-01T03:19:47;98908.47;;;8.59;95.58
71805;BME280;59654;52.216;5.616;2023-04-01T03:20:18;98906.66;;;8.60;96.36
71805;BME280;59654;52.216;5.616;2023-04-01T03:20:50;98907.50;;;8.60;95.57
71805;BME280;59654;52.216;5.616;2023-04-01T03:21:23;98902.09;;;8.62;95.77
71805;BME280;59654;52.216;5.616;2023-04-01T03:21:54;98908.28;;;8.62;96.27
71805;BME280;59654;52.216;5.616;2023-04-01T03:22:26;98912.66;;;8.63;96.13
71805;BME280;59654;52.216;5.616;2023-04-01T03:22:57;98910.00;;;8.63;95.89
71805;BME280;59654;52.216;5.616;2023-04-01T03:23:28;98910.75;;;8.65;95.40
71805;BME280;59654;52.216;5.616;2023-04-01T03:23:58;98904.59;;;8.65;95.33
71805;BME280;59654;52.216;5.616;2023-04-01T03:24:31;98912.66;;;8.63;95.13
71805;BME280;59654;52.216;5.616;2023-04-01T03:25:03;98905.53;;;8.64;95.00